Milan, Ohio
Current Conditions -  °F | °C
As of 7:13 PM on Saturday 25 Oct 2014 (Local Time) from KPCW Reporting Station
Clear Clear  
Wind Chill: 64°   Ceiling: Unl
Heat Index: 64°   Visibility: 10mi
Dew Point: 45°   Wind: 10mph
Humidity: 49%   Direction: 280°W
Pressure: 29.78"   Gusts: NA
Location:  41.3°N, 82.61°W
Report Text: KPCW 252313Z AUTO 28009KT 10SM CLR 18/07 A2978 RMK AO2 $
Loading
Personal Weather Stations






























Interactive Weather Map
Tropical Storm Tracking
New forecast layout! Learn more

10-Day Weather Forecast

Advertisements
Track Severe Weather on mobile